aviador You're here:

KMHL Decoded Metar

in
Report Time2017-03-25 17:35:00
UTC Time2017-03-25 17:26:28
Flight Rules mvfr MVFR
Wind140° at 03 kt
W.Decomp.*RWY 18: 2.3 kt HW 1.9 kt LCW
RWY 09: 1.9 kt HW 2.3 kt RCW
W.Rank140° ranks 8
Current wind is below 140° avg. (7.0)
Visibility9999 m
Phenomena:N/A
Clouds:Overcast 023 Hf
Expected CloudBase > 1,600 ft AGL from Temp-Dew spread
Ceiling2,300 ft
Temp16°C
Dew Point12°C (77% RH)
AAT15.5°C
QNH1010 hPa
Raw Report
KMHL 251735Z AUTO 14003KT 10SM OVC023 16/12 A2983 RMK AO2=

Extra information for KMHL:More info

Social comments